Latest Coastal Weather Observations for Merimbula

IDN60701

Issued at 9:15 am EST Tuesday 2 September 2014 (issued every 10 minutes, with the page automatically refreshed every 10 minutes)

About coastal observations | Map of coastal stations | Coastal observations for NSW | Marine services | Other Formats
Station Details ID: 069147 Name: MERIMBULA AIRPORT AWS Lat: -36.91 Lon: 149.90 Height: 1.5 m
Data from the previous 72 hours. | See also: Recent months at Merimbula
Date/Time
EST
Temp

°C
Wind Pressure Rain
since 9am
mm
Weather Cloud Vis
km
Sea
Height
m
Swell
Dir
 
Speed
knots
Gust
knots
hPa Trend Height
m
Period
s
Dir
02/09:00am 12.4 WSW 8 14 1009.2 - 5.0 - Cloudy 10 - - - -
02/08:30am 12.0 WSW 7 10 1009.3 - 5.0 - Cloudy 10 - - - -
02/08:00am 11.2 WNW 4 7 1009.3 - 5.0 - Cloudy 10 - - - -
02/07:30am 11.0 W 4 6 1009.3 - 5.0 - Cloudy 10 - - - -
02/07:00am 10.4 W 7 11 1008.9 - 5.0 - Partly cloudy 10 - - - -
02/06:30am 10.1 W 8 11 1009.0 - 5.0 - Cloudy 10 - - - -
02/06:00am 10.1 WSW 8 13 1009.0 - 5.0 - Cloudy 10 - - - -
02/05:30am 10.0 WSW 9 15 1009.0 - 5.0 - Cloudy 10 - - - -
02/05:00am 9.9 SW 10 15 1008.9 - 4.8 - Partly cloudy 8 - - - -
02/04:30am 10.0 WSW 7 11 1008.7 - 3.6 - Partly cloudy 10 - - - -
02/04:00am 10.2 WSW 11 19 1008.7 - 3.2 - Partly cloudy 9 - - - -
02/03:30am 11.0 SSW 9 14 1008.3 - 2.0 - Partly cloudy 7 - - - -
02/03:00am 11.5 SSW 1 4 1008.2 - 1.2 - Cloudy 10 - - - -
02/02:30am 11.6 CALM 0 0 1008.3 - 0.6 - Partly cloudy 10 - - - -
02/02:00am 12.0 SSE 6 8 1008.6 - 0.6 - Partly cloudy 7 - - - -
02/01:30am 12.1 SSE 6 9 1008.4 - 0.4 - Cloudy 7 - - - -
02/01:00am 11.7 CALM 0 0 1008.7 - 0.4 - Cloudy 8 - - - -
02/12:30am 11.9 CALM 0 0 1008.9 - 0.4 - Cloudy 10 - - - -
02/12:00am 12.4 CALM 0 0 1008.9 - 0.4 - Cloudy 10 - - - -
 
Date/Time
EST
Temp

°C
Wind Pressure Rain
since 9am
mm
Weather Cloud Vis
km
Sea
Height
m
Swell
Dir
 
Speed
knots
Gust
knots
hPa Trend Height
m
Period
s
Dir
01/11:30pm 12.4 CALM 0 0 1008.8 - 0.4 - Cloudy 10 - - - -
01/11:00pm 13.0 S 4 7 1008.6 - 0.4 - Partly cloudy 7 - - - -
01/10:30pm 13.6 SSE 5 7 1008.9 - 0.4 - Partly cloudy 9 - - - -
01/10:00pm 14.6 S 10 15 1008.4 - 0.0 - Cloudy 10 - - - -
01/09:30pm 14.6 S 8 13 1008.2 - 0.0 - Cloudy 10 - - - -
01/09:00pm 14.2 NW 3 5 1007.4 - 0.0 - Cloudy 10 - - - -
01/08:30pm 14.5 NNW 7 9 1007.4 - 0.0 - Partly cloudy 10 - - - -
01/08:00pm 15.0 N 6 7 1007.5 - 0.0 - - 10 - - - -
01/07:30pm 15.2 NW 8 9 1007.7 - 0.0 - - 10 - - - -
01/07:00pm 14.5 NW 7 11 1007.8 - 0.0 - - 10 - - - -
01/06:30pm 14.3 CALM 0 0 1007.7 - 0.0 - - 10 - - - -
01/06:00pm 14.4 CALM 0 0 1007.6 - 0.0 - - 10 - - - -
01/05:30pm 15.3 CALM 0 0 1007.7 - 0.0 - Partly cloudy 10 - - - -
01/05:00pm 15.7 CALM 0 0 1007.6 - 0.0 - - 9 - - - -
01/04:30pm 16.5 CALM 0 0 1007.5 - 0.0 - Partly cloudy 8 - - - -
01/04:00pm 17.5 CALM 0 0 1007.4 - 0.0 - Partly cloudy 7 - - - -
01/03:30pm 17.7 CALM 0 0 1007.4 - 0.0 - Partly cloudy 7 - - - -
01/03:00pm 18.3 NE 4 6 1007.9 - 0.0 - - 10 - - - -
01/02:30pm 17.7 NE 6 9 1007.9 - 0.0 - - 10 - - - -
01/02:00pm 18.2 ENE 6 8 1008.2 - 0.0 - - 10 - - - -
01/01:30pm 18.6 ENE 7 10 1008.7 - 0.0 - - 9 - - - -
01/01:00pm 20.1 NE 5 7 1009.0 - 0.0 - - 10 - - - -
01/12:30pm 18.9 ENE 3 6 1009.6 - 0.0 - - 8 - - - -
01/12:00pm 18.9 ESE 6 9 1010.0 - 0.0 - - 10 - - - -
01/11:30am 18.6 CALM 0 0 1010.5 - 0.0 - - 10 - - - -
01/11:00am 18.1 CALM 0 0 1010.9 - 0.0 - - 10 - - - -
01/10:30am 17.2 CALM 0 0 1011.3 - 0.0 - - 10 - - - -
01/10:00am 15.0 N 3 7 1011.9 - 0.0 - - 10 - - - -
01/09:30am 13.0 CALM 0 0 1012.4 - 0.0 - - 10 - - - -
01/09:00am 10.9 CALM 0 0 1012.7 - 0.2 - - 10 - - - -
01/08:30am 10.7 CALM 0 0 1013.1 - 0.2 - - 10 - - - -
01/08:00am 10.1 CALM 0 0 1013.3 - 0.2 - - 10 - - - -
01/07:30am 6.8 SSW 4 5 1013.6 - 0.2 - - 10 - - - -
01/07:00am 6.0 WSW 2 5 1013.3 - 0.2 - - 10 - - - -
01/06:57am 6.0 WSW 3 5 1013.4 - 0.2 - - 10 - - - -
01/06:33am 5.3 SW 3 5 1013.3 - 0.2 - - 5 - - - -
01/06:30am 5.3 SW 4 6 1013.3 - 0.2 - - 8 - - - -
01/06:00am 5.2 SSW 4 6 1013.6 - 0.2 - - 10 - - - -
01/05:30am 5.6 SSW 4 5 1013.6 - 0.2 - - 10 - - - -
01/05:00am 6.0 SSW 5 6 1013.5 - 0.2 - - 10 - - - -
01/04:30am 6.3 SW 4 6 1013.3 - 0.2 - - 10 - - - -
01/04:00am 6.1 SSW 4 5 1013.4 - 0.0 - - 10 - - - -
01/03:30am 6.4 SSW 3 5 1013.7 - 0.0 - - 10 - - - -
01/03:00am 6.6 WSW 3 5 1013.9 - 0.0 - - 8 - - - -
01/02:30am 6.2 SSW 1 4 1014.4 - 0.0 - - 6 - - - -
01/02:00am 6.6 SSW 4 5 1014.7 - 0.0 - - 9 - - - -
01/01:30am 6.6 SSW 4 5 1015.0 - 0.0 - - 8 - - - -
01/01:20am 6.8 SSW 3 5 1015.2 - 0.0 - - 7 - - - -
01/01:00am 7.3 SSW 4 5 1015.3 - 0.0 - - 5 - - - -
01/12:57am 7.3 SW 4 5 1015.3 - 0.0 - - 5 - - - -
01/12:49am 7.3 SW 4 5 1015.4 - 0.0 - - 7 - - - -
01/12:30am 7.3 WSW 4 5 1015.5 - 0.0 - - 5 - - - -
01/12:18am 7.7 SW 4 5 1015.6 - 0.0 - - 8 - - - -
01/12:00am 7.7 SW 3 5 1015.8 - 0.0 - - 2 - - - -
 
Date/Time
EST
Temp

°C
Wind Pressure Rain
since 9am
mm
Weather Cloud Vis
km
Sea
Height
m
Swell
Dir
 
Speed
knots
Gust
knots
hPa Trend Height
m
Period
s
Dir
31/11:30pm 7.7 CALM 0 0 1016.0 - 0.0 - - 5 - - - -
31/11:13pm 8.4 CALM 0 0 1016.1 - 0.0 - - 5 - - - -
31/11:08pm 8.3 CALM 0 0 1016.2 - 0.0 - - 6 - - - -
31/11:00pm 8.3 CALM 0 0 1016.2 - 0.0 - - 6 - - - -
31/10:47pm 8.1 CALM 0 0 1016.3 - 0.0 - - 5 - - - -
31/10:42pm 8.5 CALM 0 0 1016.4 - 0.0 - - 8 - - - -
31/10:30pm 8.7 CALM 0 0 1016.5 - 0.0 - - 5 - - - -
31/10:00pm 9.2 CALM 0 0 1016.8 - 0.0 - - 5 - - - -
31/09:59pm 9.2 CALM 0 0 1016.9 - 0.0 - - 5 - - - -
31/09:30pm 10.0 NW 6 7 1017.1 - 0.0 - - 10 - - - -
31/09:00pm 9.8 NW 2 4 1017.1 - 0.0 - - 10 - - - -
31/08:56pm 9.9 NW 3 6 1017.1 - 0.0 - - 10 - - - -
31/08:30pm 9.5 CALM 0 0 1017.2 - 0.0 - - 5 - - - -
31/08:00pm 10.0 CALM 0 0 1017.2 - 0.0 - - 7 - - - -
31/07:30pm 10.9 CALM 0 1 1017.3 - 0.0 - - 10 - - - -
31/07:00pm 12.0 NW 4 5 1017.2 - 0.0 - - 10 - - - -
31/06:30pm 12.1 CALM 0 0 1017.0 - 0.0 - - 10 - - - -
31/06:00pm 14.0 CALM 0 0 1016.8 - 0.0 - - 10 - - - -
31/05:30pm 15.0 NE 5 8 1016.7 - 0.0 - - 10 - - - -
31/05:00pm 15.8 NE 6 8 1016.6 - 0.0 - - 10 - - - -
31/04:30pm 16.3 NE 6 10 1016.4 - 0.0 - - 10 - - - -
31/04:00pm 16.7 NE 8 13 1016.4 - 0.0 - - 10 - - - -
31/03:30pm 17.1 NE 8 12 1016.4 - 0.0 - - 10 - - - -
31/03:00pm 17.2 NE 10 13 1016.6 - 0.0 - - 10 - - - -
31/02:30pm 17.1 NE 11 16 1016.7 - 0.0 - - 10 - - - -
31/02:00pm 17.7 NE 9 13 1016.9 - 0.0 - - 10 - - - -
31/01:30pm 17.4 NE 9 13 1017.2 - 0.0 - - 10 - - - -
31/01:00pm 17.8 NE 8 13 1017.6 - 0.0 - - 10 - - - -
31/12:30pm 17.7 NE 9 12 1018.0 - 0.0 - - 10 - - - -
31/12:00pm 18.1 ENE 7 11 1018.5 - 0.0 - - 10 - - - -
31/11:30am 17.6 ESE 6 9 1019.0 - 0.0 - - 10 - - - -
31/11:00am 16.7 E 5 8 1019.5 - 0.0 - - 10 - - - -
31/10:30am 16.3 E 6 9 1019.9 - 0.0 - - 7 - - - -
31/10:00am 16.4 CALM 0 3 1020.2 - 0.0 - - 6 - - - -
31/09:30am 15.0 CALM 0 0 1020.4 - 0.0 - - 10 - - - -
31/09:00am 13.4 CALM 0 0 1020.6 - 0.0 - - 10 - - - -
31/08:30am 11.3 CALM 0 0 1020.8 - 0.0 - - 10 - - - -
31/08:00am 9.7 CALM 0 0 1020.8 - 0.0 - - 10 - - - -
31/07:30am 7.9 CALM 0 3 1020.9 - 0.0 - - 10 - - - -
31/07:00am 6.2 WSW 4 4 1020.8 - 0.0 - - 10 - - - -
31/06:30am 5.5 SW 4 5 1020.7 - 0.0 - - 10 - - - -
31/06:23am 5.9 SW 4 5 1020.6 - 0.0 - - 10 - - - -
31/06:02am 5.3 W 3 4 1020.6 - 0.0 - - 4 - - - -
31/06:00am 5.1 W 3 4 1020.6 - 0.0 - - 8 - - - -
31/05:30am 5.9 WSW 4 5 1020.5 - 0.0 - - 10 - - - -
31/05:00am 6.1 SW 4 5 1020.7 - 0.0 - - 10 - - - -
31/04:49am 6.0 SW 4 5 1020.6 - 0.0 - - 7 - - - -
31/04:30am 5.7 W 3 4 1020.6 - 0.0 - - 2 - - - -
31/04:26am 5.7 W 3 4 1020.6 - 0.0 - - 5 - - - -
31/04:00am 6.2 SW 4 5 1020.8 - 0.0 - - 9 - - - -
31/03:30am 6.0 W 3 5 1021.1 - 0.0 - - 8 - - - -
31/03:00am 6.3 SW 3 4 1021.3 - 0.0 - - 7 - - - -
31/02:47am 6.4 SW 4 5 1021.4 - 0.0 - - 10 - - - -
31/02:30am 6.7 SW 4 4 1021.5 - 0.0 - - 4 - - - -
31/02:27am 6.7 SW 4 5 1021.6 - 0.0 - - 5 - - - -
31/02:00am 6.6 SW 3 4 1021.7 - 0.0 - - 7 - - - -
31/01:30am 6.8 SW 4 4 1022.0 - 0.0 - - 6 - - - -
31/01:00am 7.5 SW 4 5 1022.4 - 0.0 - - 10 - - - -
31/12:30am 7.7 WSW 3 4 1022.6 - 0.0 - - 7 - - - -
31/12:00am 8.0 SW 4 5 1022.9 - 0.0 - - 6 - - - -
 
Date/Time
EST
Temp

°C
Wind Pressure Rain
since 9am
mm
Weather Cloud Vis
km
Sea
Height
m
Swell
Dir
 
Speed
knots
Gust
knots
hPa Trend Height
m
Period
s
Dir
30/11:30pm 8.2 SSW 4 5 1023.0 - 0.0 - - 9 - - - -
30/11:00pm 8.9 WNW 5 7 1023.2 - 0.0 - - 10 - - - -
30/10:45pm 8.5 WNW 3 5 1023.4 - 0.0 - - 8 - - - -
30/10:30pm 7.5 CALM 0 0 1023.5 - 0.0 - - 3 - - - -
30/10:00pm 8.3 CALM 0 0 1023.7 - 0.0 - - 2 - - - -
30/09:55pm 8.3 CALM 0 0 1023.8 - 0.0 - - 5 - - - -
30/09:52pm 8.0 CALM 0 0 1023.8 - 0.0 - - 7 - - - -
30/09:30pm 8.2 CALM 0 0 1024.0 - 0.0 - - 3 - - - -
30/09:08pm 8.8 CALM 0 0 1024.1 - 0.0 - - 5 - - - -
30/09:00pm 8.7 CALM 0 0 1024.1 - 0.0 - - 8 - - - -
30/08:43pm 9.4 CALM 0 0 1024.1 - 0.0 - - 8 - - - -
30/08:30pm 9.2 CALM 0 0 1024.0 - 0.0 - - 5 - - - -
30/08:28pm 9.1 CALM 0 0 1024.0 - 0.0 - - 5 - - - -
30/08:00pm 9.9 CALM 0 0 1024.2 - 0.0 - - 8 - - - -
30/07:30pm 10.9 CALM 0 0 1024.2 - 0.0 - - 10 - - - -
30/07:00pm 12.1 S 3 6 1024.0 - 0.0 - - 10 - - - -
30/06:30pm 13.2 S 3 5 1024.0 - 0.0 - Partly cloudy 10 - - - -
30/06:00pm 13.8 SSW 4 5 1024.1 - 0.0 - Cloudy 10 - - - -
30/05:30pm 14.2 SSE 5 8 1024.1 - 0.0 - Partly cloudy 7 - - - -
30/05:00pm 15.0 SE 8 12 1024.0 - 0.0 - Partly cloudy 9 - - - -
30/04:30pm 15.5 SE 7 12 1023.9 - 0.0 - Partly cloudy 7 - - - -
30/04:00pm 15.6 SE 5 9 1024.0 - 0.0 - Partly cloudy 7 - - - -
30/03:30pm 15.8 SE 7 11 1024.0 - 0.0 - Partly cloudy 8 - - - -
30/03:00pm 16.3 SE 7 9 1024.1 - 0.0 - Cloudy 9 - - - -
30/02:30pm 16.6 E 5 9 1024.4 - 0.0 - Partly cloudy 10 - - - -
30/02:00pm 16.7 SE 7 9 1024.5 - 0.0 - Partly cloudy 10 - - - -
30/01:30pm 17.8 S 6 9 1024.8 - 0.0 - Partly cloudy 10 - - - -
30/01:00pm 17.5 SSE 6 12 1025.2 - 0.0 - Partly cloudy 10 - - - -
30/12:30pm 16.5 S 7 11 1025.6 - 0.0 - Cloudy 10 - - - -
30/12:00pm 17.1 SSW 7 10 1026.0 - 0.0 - Cloudy 10 - - - -
30/11:30am 16.7 SSW 8 13 1026.3 - 0.0 - Partly cloudy 10 - - - -
30/11:00am 17.2 SSW 8 13 1026.6 - 0.0 - Cloudy 10 - - - -
30/10:30am 16.4 SSW 7 11 1026.9 - 0.0 - Partly cloudy 10 - - - -
30/10:00am 15.0 SW 9 13 1027.1 - 0.0 - Cloudy 10 - - - -
30/09:30am 14.0 WSW 7 11 1027.3 - 0.0 - Cloudy 10 - - - -

Other Formats:

Comma delimited format used in spreadsheet applications
http://www.bom.gov.au/fwo/IDN60701/IDN60701.95929.axf

JavaScript Object Notation format (JSON) in row-major order
http://www.bom.gov.au/fwo/IDN60701/IDN60701.95929.json